createdAt,value
2017-10-26T00:01:13.221Z,11.71
2017-10-26T00:03:39.404Z,11.72
2017-10-26T00:06:05.853Z,11.61
2017-10-26T00:08:32.044Z,11.59
2017-10-26T00:10:58.334Z,11.53
2017-10-26T00:13:24.555Z,11.54
2017-10-26T00:15:51.464Z,11.56
2017-10-26T00:18:17.668Z,11.51
2017-10-26T00:20:43.886Z,11.50
2017-10-26T00:23:10.091Z,11.58
2017-10-26T00:25:36.275Z,11.44
2017-10-26T00:28:02.513Z,11.54
2017-10-26T00:30:28.692Z,11.42
2017-10-26T00:32:54.881Z,11.45
2017-10-26T00:35:21.865Z,11.43
2017-10-26T00:37:48.174Z,11.42
2017-10-26T00:40:14.373Z,11.61
2017-10-26T00:42:41.485Z,11.50
2017-10-26T00:45:07.665Z,11.52
2017-10-26T00:47:34.597Z,11.55
2017-10-26T00:50:01.574Z,11.59
2017-10-26T00:52:27.740Z,11.55
2017-10-26T00:54:53.938Z,11.46
2017-10-26T00:57:20.191Z,11.53
2017-10-26T00:59:46.440Z,11.55
2017-10-26T01:02:12.635Z,11.60
2017-10-26T01:04:38.864Z,11.46
2017-10-26T01:07:05.128Z,11.48
2017-10-26T01:09:31.312Z,11.59
2017-10-26T01:11:57.485Z,11.57
2017-10-26T01:14:23.665Z,11.56
2017-10-26T01:16:49.856Z,11.54
2017-10-26T01:19:16.816Z,11.49
2017-10-26T01:21:43.023Z,11.39
2017-10-26T01:24:10.203Z,11.41
2017-10-26T01:26:36.400Z,11.46
2017-10-26T01:29:03.333Z,11.56
2017-10-26T01:31:30.936Z,11.49
2017-10-26T01:33:58.777Z,11.55
2017-10-26T01:36:25.069Z,11.59
2017-10-26T01:38:51.302Z,11.54
2017-10-26T01:41:17.476Z,11.53
2017-10-26T01:43:43.663Z,11.58
2017-10-26T01:46:10.137Z,11.69
2017-10-26T01:48:36.321Z,11.63
2017-10-26T01:51:02.539Z,11.62
2017-10-26T01:53:29.035Z,11.58
2017-10-26T01:55:55.231Z,11.63
2017-10-26T01:58:22.188Z,11.55
2017-10-26T02:00:49.132Z,11.63
2017-10-26T02:03:15.320Z,11.65
2017-10-26T02:05:42.436Z,11.61
2017-10-26T02:08:08.971Z,11.67
2017-10-26T02:10:35.152Z,11.68
2017-10-26T02:13:01.383Z,11.70
2017-10-26T02:15:28.319Z,11.68
2017-10-26T02:17:54.500Z,11.78
2017-10-26T02:20:20.798Z,11.78
2017-10-26T02:22:47.727Z,11.78
2017-10-26T02:25:14.645Z,11.76
2017-10-26T02:27:40.843Z,11.72
2017-10-26T02:30:25.520Z,11.85
2017-10-26T02:32:51.704Z,11.74
2017-10-26T02:35:17.913Z,11.71
2017-10-26T02:37:44.828Z,11.82
2017-10-26T02:40:11.028Z,11.75
2017-10-26T02:42:37.207Z,11.82
2017-10-26T02:45:03.440Z,11.79
2017-10-26T02:47:30.375Z,11.74
2017-10-26T02:49:56.557Z,11.85
2017-10-26T02:52:22.743Z,11.81
2017-10-26T02:54:49.654Z,11.72
2017-10-26T02:57:15.835Z,11.83
2017-10-26T02:59:42.087Z,11.85
2017-10-26T03:02:08.275Z,11.69
2017-10-26T03:04:34.465Z,11.76
2017-10-26T03:07:00.711Z,11.72
2017-10-26T03:09:26.888Z,11.73
2017-10-26T03:11:53.045Z,11.82
2017-10-26T03:14:19.273Z,11.74
2017-10-26T03:16:45.477Z,11.74
2017-10-26T03:19:11.708Z,11.74
2017-10-26T03:21:37.889Z,11.72
2017-10-26T03:24:04.807Z,11.68
2017-10-26T03:26:31.159Z,11.74
2017-10-26T03:28:58.076Z,11.72
2017-10-26T03:31:24.244Z,11.80
2017-10-26T03:33:51.184Z,11.68
2017-10-26T03:36:18.089Z,11.70
2017-10-26T03:38:44.247Z,11.82
2017-10-26T03:41:11.188Z,11.73
2017-10-26T03:43:38.110Z,11.76
2017-10-26T03:46:04.314Z,11.72
2017-10-26T03:48:30.529Z,11.78
2017-10-26T03:50:56.784Z,11.84
2017-10-26T03:53:22.947Z,11.86
2017-10-26T03:55:49.855Z,11.80
2017-10-26T03:58:16.012Z,11.70
2017-10-26T04:00:43.256Z,11.71
2017-10-26T04:03:10.201Z,11.65
2017-10-26T04:05:36.356Z,11.66
2017-10-26T04:08:02.552Z,11.78
2017-10-26T04:10:28.727Z,11.89
2017-10-26T04:12:54.908Z,11.88
2017-10-26T04:15:21.088Z,11.89
2017-10-26T04:17:47.300Z,11.93
2017-10-26T04:20:13.520Z,11.96
2017-10-26T04:22:39.726Z,11.90
2017-10-26T04:25:06.688Z,11.95
2017-10-26T04:27:33.600Z,11.98
2017-10-26T04:29:59.787Z,11.99
2017-10-26T04:32:26.036Z,12.04
2017-10-26T04:34:52.221Z,11.99
2017-10-26T04:37:18.395Z,12.00
2017-10-26T04:39:44.632Z,12.01
2017-10-26T04:42:10.799Z,11.99
2017-10-26T04:44:36.983Z,11.91
2017-10-26T04:47:03.260Z,12.02
2017-10-26T04:49:29.429Z,12.01
2017-10-26T04:51:55.622Z,12.01
2017-10-26T04:54:21.782Z,12.04
2017-10-26T04:56:47.944Z,12.12
2017-10-26T04:59:14.911Z,12.03
2017-10-26T05:01:41.076Z,12.00
2017-10-26T05:04:07.255Z,11.93
2017-10-26T05:06:34.187Z,11.88
2017-10-26T05:09:01.100Z,11.89
2017-10-26T05:11:28.015Z,11.90
2017-10-26T05:13:54.549Z,11.83
2017-10-26T05:16:20.836Z,11.82
2017-10-26T05:18:48.122Z,11.81
2017-10-26T05:21:14.285Z,11.84
2017-10-26T05:23:40.448Z,11.83
2017-10-26T05:26:07.391Z,11.78
2017-10-26T05:28:34.303Z,11.86
2017-10-26T05:31:01.224Z,11.84
2017-10-26T05:33:27.495Z,11.93
2017-10-26T05:35:53.701Z,11.93
2017-10-26T05:38:19.895Z,11.93
2017-10-26T05:40:46.148Z,11.99
2017-10-26T05:43:12.383Z,12.00
2017-10-26T05:45:38.590Z,11.96
2017-10-26T05:48:04.809Z,12.03
2017-10-26T05:50:30.993Z,11.97
2017-10-26T05:52:57.176Z,12.00
2017-10-26T05:55:23.482Z,12.07
2017-10-26T05:57:49.659Z,12.07
2017-10-26T06:00:15.877Z,12.07
2017-10-26T06:02:42.100Z,12.03
2017-10-26T06:05:08.262Z,11.95
2017-10-26T06:07:35.253Z,12.04
2017-10-26T06:10:02.204Z,12.12
2017-10-26T06:12:28.361Z,12.16
2017-10-26T06:14:54.524Z,12.13
2017-10-26T06:17:20.737Z,12.14
2017-10-26T06:19:47.657Z,12.17
2017-10-26T06:22:13.821Z,12.19
2017-10-26T06:24:41.093Z,12.17
2017-10-26T06:27:07.260Z,12.16
2017-10-26T06:29:33.516Z,12.12
2017-10-26T06:32:00.609Z,12.14
2017-10-26T06:34:26.792Z,12.25
2017-10-26T06:36:53.700Z,12.20
2017-10-26T06:39:19.872Z,12.19
2017-10-26T06:41:46.794Z,12.23
2017-10-26T06:44:12.953Z,12.20
2017-10-26T06:46:39.452Z,12.25
2017-10-26T06:49:06.408Z,12.19
2017-10-26T06:51:33.311Z,12.16
2017-10-26T06:53:59.491Z,12.18
2017-10-26T06:56:26.445Z,12.08
2017-10-26T06:58:52.608Z,12.13
2017-10-26T07:01:18.817Z,12.19
2017-10-26T07:03:44.977Z,12.21
2017-10-26T07:06:11.893Z,12.16
2017-10-26T07:08:38.312Z,12.23
2017-10-26T07:11:04.467Z,12.21
2017-10-26T07:13:30.639Z,12.38
2017-10-26T07:15:57.572Z,12.40
2017-10-26T07:18:23.744Z,12.38
2017-10-26T07:20:49.925Z,12.40
2017-10-26T07:23:16.903Z,12.40
2017-10-26T07:25:43.085Z,12.42
2017-10-26T07:28:09.277Z,12.56
2017-10-26T07:30:35.698Z,12.56
2017-10-26T07:33:01.871Z,12.57
2017-10-26T07:35:28.084Z,12.57
2017-10-26T07:37:54.285Z,12.50
2017-10-26T07:40:20.466Z,12.56
2017-10-26T07:42:47.412Z,12.63
2017-10-26T07:45:14.405Z,12.68
2017-10-26T07:47:40.584Z,12.71
2017-10-26T07:50:07.544Z,12.70
2017-10-26T07:52:34.528Z,12.75
2017-10-26T07:55:00.772Z,12.65
2017-10-26T07:57:27.467Z,12.55
2017-10-26T07:59:53.659Z,12.69
2017-10-26T08:02:19.845Z,12.70
2017-10-26T08:04:46.047Z,12.80
2017-10-26T08:07:12.235Z,12.70
2017-10-26T08:09:38.424Z,12.75
2017-10-26T08:12:04.682Z,12.77
2017-10-26T08:14:31.612Z,12.77
2017-10-26T08:16:57.843Z,12.75
2017-10-26T08:19:24.054Z,12.79
2017-10-26T08:21:50.272Z,12.86
2017-10-26T08:24:16.533Z,12.77
2017-10-26T08:26:42.704Z,12.83
2017-10-26T08:29:09.632Z,12.80
2017-10-26T08:31:36.573Z,12.87
2017-10-26T08:34:02.756Z,12.88
2017-10-26T08:36:28.957Z,12.91
2017-10-26T08:38:55.153Z,12.95
2017-10-26T08:41:21.331Z,12.89
2017-10-26T08:43:47.843Z,12.88
2017-10-26T08:46:14.041Z,13.05
2017-10-26T08:48:40.226Z,12.90
2017-10-26T08:51:06.416Z,12.96
2017-10-26T08:53:33.381Z,12.96
2017-10-26T08:55:59.573Z,12.95
2017-10-26T08:58:26.543Z,12.95
2017-10-26T09:00:52.802Z,12.97
2017-10-26T09:03:18.992Z,12.96
2017-10-26T09:05:45.220Z,12.94
2017-10-26T09:08:12.165Z,12.95
2017-10-26T09:10:39.075Z,12.88
2017-10-26T09:13:05.269Z,12.97
2017-10-26T09:15:32.539Z,13.10
2017-10-26T09:17:58.787Z,13.04
2017-10-26T09:20:25.036Z,13.14
2017-10-26T09:22:51.236Z,13.23
2017-10-26T09:25:17.483Z,13.17
2017-10-26T09:27:44.449Z,13.06
2017-10-26T09:30:10.651Z,13.11
2017-10-26T09:32:36.864Z,13.23
2017-10-26T09:35:03.090Z,13.33
2017-10-26T09:37:29.292Z,13.19
2017-10-26T09:39:55.510Z,13.14
2017-10-26T09:42:21.687Z,13.18
2017-10-26T09:44:47.888Z,13.12
2017-10-26T09:47:14.195Z,13.23
2017-10-26T09:49:40.398Z,13.23
2017-10-26T09:52:06.584Z,13.14
2017-10-26T09:54:32.790Z,13.20
2017-10-26T09:56:58.979Z,13.26
2017-10-26T09:59:25.170Z,13.29
2017-10-26T10:01:51.421Z,13.31
2017-10-26T10:04:18.363Z,13.33
2017-10-26T10:06:45.282Z,13.35
2017-10-26T10:09:11.578Z,13.31
2017-10-26T10:11:37.742Z,13.37
2017-10-26T10:14:04.002Z,13.27
2017-10-26T10:16:31.300Z,13.34
2017-10-26T10:18:57.497Z,13.40
2017-10-26T10:21:23.679Z,13.49
2017-10-26T10:23:49.906Z,13.48
2017-10-26T10:26:16.884Z,13.60
2017-10-26T10:28:43.078Z,13.66
2017-10-26T10:31:09.397Z,13.72
2017-10-26T10:33:35.629Z,13.65
2017-10-26T10:36:01.847Z,13.79
2017-10-26T10:38:28.064Z,13.90
2017-10-26T10:40:55.179Z,13.79
2017-10-26T10:43:21.367Z,13.77
2017-10-26T10:45:47.557Z,13.73
2017-10-26T10:48:13.798Z,13.66
2017-10-26T10:50:39.987Z,13.73
2017-10-26T10:53:06.913Z,13.76
2017-10-26T10:55:33.900Z,13.82
2017-10-26T10:58:00.103Z,13.99
2017-10-26T11:00:33.151Z,13.99
2017-10-26T11:02:59.373Z,13.99
2017-10-26T11:05:25.571Z,13.99
2017-10-26T11:07:51.771Z,14.16
2017-10-26T11:10:18.783Z,14.23
2017-10-26T11:12:44.988Z,14.32
2017-10-26T11:15:11.199Z,14.25
2017-10-26T11:17:37.678Z,14.40
2017-10-26T11:20:04.109Z,14.34
2017-10-26T11:22:30.299Z,14.37
2017-10-26T11:24:56.671Z,14.53
2017-10-26T11:27:22.854Z,14.51
2017-10-26T11:29:49.080Z,14.57
2017-10-26T11:32:15.708Z,14.61
2017-10-26T11:34:41.948Z,15.04
2017-10-26T11:37:08.148Z,14.98
2017-10-26T11:39:34.508Z,15.12
2017-10-26T11:42:01.128Z,15.02
2017-10-26T11:44:27.613Z,14.94
2017-10-26T11:46:54.664Z,15.20
2017-10-26T11:49:20.856Z,15.10
2017-10-26T11:51:47.046Z,14.76
2017-10-26T11:54:14.105Z,14.81
2017-10-26T11:56:40.292Z,14.76
2017-10-26T11:59:06.903Z,14.81
2017-10-26T12:01:33.952Z,14.89
2017-10-26T12:04:00.457Z,14.99
2017-10-26T12:06:26.873Z,14.99
2017-10-26T12:08:53.124Z,14.92
2017-10-26T12:11:19.433Z,15.00
2017-10-26T12:13:46.356Z,15.16
2017-10-26T12:16:12.604Z,15.26
2017-10-26T12:18:39.572Z,15.33
2017-10-26T12:21:05.998Z,15.31
2017-10-26T12:23:32.246Z,15.35
2017-10-26T12:25:58.480Z,15.34
2017-10-26T12:28:24.695Z,15.41
2017-10-26T12:30:50.910Z,15.31
2017-10-26T12:33:17.139Z,15.31
2017-10-26T12:35:43.336Z,15.33
2017-10-26T12:38:10.633Z,15.37
2017-10-26T12:40:36.891Z,15.26
2017-10-26T12:43:03.468Z,15.30
2017-10-26T12:45:30.431Z,15.27
2017-10-26T12:47:56.626Z,15.35
2017-10-26T12:50:23.553Z,15.22
2017-10-26T12:52:50.096Z,15.27
2017-10-26T12:55:16.448Z,15.28
2017-10-26T12:57:43.604Z,15.29
2017-10-26T13:00:10.156Z,15.22
2017-10-26T13:02:37.408Z,15.24
2017-10-26T13:05:04.277Z,15.19
2017-10-26T13:07:30.493Z,15.24
2017-10-26T13:09:56.702Z,15.30
2017-10-26T13:12:22.900Z,15.33
2017-10-26T13:14:50.073Z,15.45
2017-10-26T13:17:16.579Z,15.17
2017-10-26T13:19:43.651Z,15.13
2017-10-26T13:22:10.387Z,15.27
2017-10-26T13:24:36.690Z,15.17
2017-10-26T13:27:02.915Z,15.18
2017-10-26T13:29:29.116Z,15.09
2017-10-26T13:31:55.518Z,15.12
2017-10-26T13:34:22.689Z,15.09
2017-10-26T13:36:49.294Z,14.97
2017-10-26T13:39:15.681Z,15.07
2017-10-26T13:41:41.940Z,15.02
2017-10-26T13:44:09.331Z,15.20
2017-10-26T13:46:35.518Z,15.08
2017-10-26T13:49:02.504Z,15.06
2017-10-26T13:51:28.749Z,15.07
2017-10-26T13:53:55.052Z,15.01
2017-10-26T13:56:21.446Z,15.02
2017-10-26T13:58:47.696Z,14.93
2017-10-26T14:01:14.614Z,14.99
2017-10-26T14:03:40.827Z,14.98
2017-10-26T14:06:07.048Z,14.91
2017-10-26T14:08:33.238Z,14.97
2017-10-26T14:10:59.432Z,14.92
2017-10-26T14:13:26.387Z,14.95
2017-10-26T14:15:53.311Z,15.02
2017-10-26T14:18:19.463Z,14.96
2017-10-26T14:20:46.724Z,15.00
2017-10-26T14:23:12.886Z,14.95
2017-10-26T14:25:39.048Z,14.79
2017-10-26T14:28:05.967Z,14.89
2017-10-26T14:30:32.164Z,14.96
2017-10-26T14:32:58.324Z,14.90
2017-10-26T14:35:24.511Z,14.83
2017-10-26T14:37:50.738Z,14.82
2017-10-26T14:40:16.943Z,14.80
2017-10-26T14:42:43.840Z,14.69
2017-10-26T14:45:10.038Z,14.71
2017-10-26T14:47:36.196Z,14.73
2017-10-26T14:50:02.361Z,14.76
2017-10-26T14:52:29.320Z,14.69
2017-10-26T14:54:56.234Z,14.72
2017-10-26T14:57:22.404Z,14.67
2017-10-26T14:59:48.601Z,14.67
2017-10-26T15:02:15.506Z,14.68
2017-10-26T15:04:41.665Z,14.63
2017-10-26T15:07:08.628Z,14.69
2017-10-26T15:09:35.552Z,14.61
2017-10-26T15:12:01.714Z,14.61
2017-10-26T15:14:28.006Z,14.57
2017-10-26T15:16:54.155Z,14.55
2017-10-26T15:19:21.051Z,14.51
2017-10-26T15:21:47.227Z,14.47
2017-10-26T15:24:14.132Z,14.47
2017-10-26T15:26:40.306Z,14.40
2017-10-26T15:29:06.499Z,14.44
2017-10-26T15:31:33.417Z,14.47
2017-10-26T15:33:59.641Z,14.48
2017-10-26T15:36:26.863Z,14.44
2017-10-26T15:38:53.051Z,14.42
2017-10-26T15:41:19.217Z,14.40
2017-10-26T15:43:45.402Z,14.58
2017-10-26T15:46:11.605Z,14.31
2017-10-26T15:48:37.763Z,14.30
2017-10-26T15:51:05.070Z,14.20
2017-10-26T15:53:31.245Z,14.17
2017-10-26T15:55:58.148Z,14.16
2017-10-26T15:58:24.356Z,14.14
2017-10-26T16:00:50.510Z,14.08
2017-10-26T16:03:16.712Z,14.10
2017-10-26T16:05:43.154Z,14.06
2017-10-26T16:08:09.320Z,14.01
2017-10-26T16:10:35.521Z,13.97
2017-10-26T16:13:01.919Z,14.04
2017-10-26T16:15:28.107Z,13.98
2017-10-26T16:17:54.278Z,13.94
2017-10-26T16:20:20.988Z,13.92
2017-10-26T16:22:47.905Z,13.96
2017-10-26T16:25:14.079Z,13.90
2017-10-26T16:27:40.271Z,13.90
2017-10-26T16:30:06.457Z,13.93
2017-10-26T16:32:32.625Z,13.86
2017-10-26T16:34:58.818Z,13.82
2017-10-26T16:37:24.975Z,13.79
2017-10-26T16:39:51.132Z,13.78
2017-10-26T16:42:17.309Z,13.73
2017-10-26T16:44:43.460Z,13.74
2017-10-26T16:47:10.401Z,13.73
2017-10-26T16:49:37.323Z,13.71
2017-10-26T16:52:03.525Z,13.71
2017-10-26T16:54:29.727Z,13.65
2017-10-26T16:56:55.896Z,13.70
2017-10-26T16:59:22.090Z,13.74
2017-10-26T17:01:48.305Z,13.73
2017-10-26T17:04:15.217Z,13.74
2017-10-26T17:06:41.392Z,13.71
2017-10-26T17:09:07.596Z,13.68
2017-10-26T17:11:34.519Z,13.70
2017-10-26T17:14:00.700Z,13.70
2017-10-26T17:16:26.901Z,13.79
2017-10-26T17:18:53.080Z,13.77
2017-10-26T17:21:19.273Z,13.71
2017-10-26T17:23:45.456Z,13.73
2017-10-26T17:26:11.611Z,13.69
2017-10-26T17:28:37.912Z,13.78
2017-10-26T17:31:04.089Z,13.71
2017-10-26T17:33:30.273Z,13.75
2017-10-26T17:35:58.071Z,13.71
2017-10-26T17:38:24.268Z,13.67
2017-10-26T17:40:51.180Z,13.92
2017-10-26T17:43:17.353Z,13.85
2017-10-26T17:45:44.625Z,13.77
2017-10-26T17:48:10.836Z,13.71
2017-10-26T17:50:37.733Z,13.75
2017-10-26T17:53:03.899Z,13.71
2017-10-26T17:55:30.868Z,13.78
2017-10-26T17:57:57.033Z,13.74
2017-10-26T18:00:23.223Z,13.71
2017-10-26T18:02:49.393Z,13.74
2017-10-26T18:05:15.764Z,13.72
2017-10-26T18:07:41.940Z,13.63
2017-10-26T18:10:08.117Z,13.70
2017-10-26T18:12:34.368Z,13.75
2017-10-26T18:15:01.085Z,13.72
2017-10-26T18:17:27.269Z,13.76
2017-10-26T18:19:53.479Z,13.81
2017-10-26T18:22:19.668Z,13.76
2017-10-26T18:24:45.857Z,13.79
2017-10-26T18:27:12.058Z,13.77
2017-10-26T18:29:38.229Z,13.83
2017-10-26T18:32:05.199Z,13.78
2017-10-26T18:34:31.436Z,13.74
2017-10-26T18:36:57.630Z,13.86
2017-10-26T18:39:24.576Z,13.84
2017-10-26T18:41:51.532Z,13.77
2017-10-26T18:44:18.012Z,13.75
2017-10-26T18:46:44.441Z,13.71
2017-10-26T18:49:11.054Z,13.78
2017-10-26T18:51:37.501Z,13.64
2017-10-26T18:54:03.991Z,13.59
2017-10-26T18:56:31.156Z,13.61
2017-10-26T18:58:58.103Z,13.62
2017-10-26T19:01:24.287Z,13.58
2017-10-26T19:03:50.506Z,13.57
2017-10-26T19:06:16.683Z,13.67
2017-10-26T19:08:42.913Z,13.58
2017-10-26T19:11:09.223Z,13.49
2017-10-26T19:13:36.164Z,13.47
2017-10-26T19:16:03.099Z,13.43
2017-10-26T19:18:29.333Z,13.37
2017-10-26T19:20:55.523Z,13.41
2017-10-26T19:23:21.709Z,13.41
2017-10-26T19:25:47.939Z,13.46
2017-10-26T19:28:14.164Z,13.44
2017-10-26T19:30:40.352Z,13.55
2017-10-26T19:33:07.237Z,13.47
2017-10-26T19:35:33.780Z,13.42
2017-10-26T19:38:00.385Z,13.39
2017-10-26T19:40:27.680Z,13.39
2017-10-26T19:42:53.890Z,13.34
2017-10-26T19:45:20.159Z,13.35
2017-10-26T19:47:47.190Z,13.29
2017-10-26T19:50:13.369Z,13.24
2017-10-26T19:52:40.604Z,13.27
2017-10-26T19:55:06.852Z,13.27
2017-10-26T19:57:33.809Z,13.27
2017-10-26T20:00:00.761Z,13.35
2017-10-26T20:02:26.940Z,13.26
2017-10-26T20:04:53.436Z,13.28
2017-10-26T20:07:19.656Z,13.26
2017-10-26T20:09:45.848Z,13.26
2017-10-26T20:12:12.088Z,13.26
2017-10-26T20:14:39.040Z,13.26
2017-10-26T20:17:06.025Z,13.19
2017-10-26T20:19:32.204Z,13.19
2017-10-26T20:21:59.140Z,13.26
2017-10-26T20:24:25.345Z,13.20
2017-10-26T20:26:51.546Z,13.19
2017-10-26T20:29:17.700Z,13.21
2017-10-26T20:31:44.095Z,13.22
2017-10-26T20:34:10.275Z,13.16
2017-10-26T20:36:36.506Z,13.16
2017-10-26T20:39:02.763Z,13.16
2017-10-26T20:41:28.958Z,13.17
2017-10-26T20:43:55.131Z,13.22
2017-10-26T20:46:21.663Z,13.26
2017-10-26T20:48:47.833Z,13.24
2017-10-26T20:51:20.865Z,13.23
2017-10-26T20:53:53.317Z,13.25
2017-10-26T20:56:25.760Z,13.19
2017-10-26T20:58:58.208Z,13.15
2017-10-26T21:04:28.716Z,13.06
2017-10-26T21:06:55.652Z,13.01
2017-10-26T21:09:24.761Z,13.01
2017-10-26T21:11:57.756Z,13.00
2017-10-26T21:14:27.900Z,12.90
2017-10-26T21:16:54.080Z,12.92
2017-10-26T21:19:20.255Z,12.89
2017-10-26T21:21:46.472Z,12.93
2017-10-26T21:24:12.671Z,12.87
2017-10-26T21:26:39.587Z,12.89
2017-10-26T21:29:05.768Z,12.92
2017-10-26T21:31:31.988Z,12.87
2017-10-26T21:33:58.162Z,12.88
2017-10-26T21:36:24.339Z,12.88
2017-10-26T21:38:51.282Z,12.87
2017-10-26T21:41:18.180Z,12.86
2017-10-26T21:43:44.364Z,12.88
2017-10-26T21:46:10.559Z,12.86
2017-10-26T21:48:36.728Z,12.91
2017-10-26T21:51:02.899Z,12.91
2017-10-26T21:53:29.082Z,12.92
2017-10-26T21:55:55.245Z,12.87
2017-10-26T21:58:21.438Z,12.83
2017-10-26T22:00:47.626Z,12.92
2017-10-26T22:03:15.381Z,12.98
2017-10-26T22:05:41.536Z,12.93
2017-10-26T22:08:07.725Z,12.89
2017-10-26T22:10:33.916Z,12.89
2017-10-26T22:13:00.078Z,12.87
2017-10-26T22:15:26.253Z,12.88
2017-10-26T22:17:52.444Z,12.86
2017-10-26T22:20:18.624Z,12.82
2017-10-26T22:22:44.791Z,12.79
2017-10-26T22:25:10.971Z,12.75
2017-10-26T22:27:37.195Z,12.70
2017-10-26T22:30:03.361Z,12.60
2017-10-26T22:32:29.535Z,12.53
2017-10-26T22:34:55.707Z,12.45
2017-10-26T22:37:22.026Z,12.44
2017-10-26T22:39:48.198Z,12.43
2017-10-26T22:42:15.107Z,12.40
2017-10-26T22:44:41.256Z,12.40
2017-10-26T22:47:07.437Z,12.31
2017-10-26T22:49:33.600Z,12.33
2017-10-26T22:51:59.768Z,12.38
2017-10-26T22:54:25.993Z,12.33
2017-10-26T22:56:52.157Z,12.19
2017-10-26T22:59:18.329Z,12.03
2017-10-26T23:01:45.273Z,11.94
2017-10-26T23:04:12.179Z,11.93
2017-10-26T23:06:38.387Z,11.96
2017-10-26T23:09:04.664Z,11.86
2017-10-26T23:11:30.854Z,11.89
2017-10-26T23:13:57.031Z,11.82
2017-10-26T23:16:23.941Z,11.73
2017-10-26T23:18:50.113Z,11.82
2017-10-26T23:21:16.319Z,11.93
2017-10-26T23:23:43.235Z,11.90
2017-10-26T23:26:09.416Z,11.86
2017-10-26T23:28:35.617Z,11.80
2017-10-26T23:31:01.820Z,11.81
2017-10-26T23:33:27.992Z,11.82
2017-10-26T23:35:54.912Z,11.81
2017-10-26T23:38:21.065Z,11.83
2017-10-26T23:40:47.216Z,11.80
2017-10-26T23:43:13.392Z,11.78
2017-10-26T23:45:39.553Z,11.82
2017-10-26T23:48:05.779Z,11.79
2017-10-26T23:50:31.987Z,11.81
2017-10-26T23:52:58.894Z,11.81
2017-10-26T23:55:25.064Z,11.73
2017-10-26T23:57:52.222Z,11.72
